Scarborough, Canada
Current Conditions -  °F | °C
As of 2:00 AM on Saturday 25 Oct 2014 (Local Time) from CYKZ Reporting Station
Overcast Overcast  
Wind Chill: 50°   Ceiling: 4000
Heat Index: 50°   Visibility: 15mi
Dew Point: 45°   Wind: 0mph
Humidity: 82%   Direction: NA
Pressure: 29.88"   Gusts: NA
Location:  43.77°N, 79.26°W
Report Text: CYKZ 250600Z 00000KT 15SM OVC040 10/07 A2988 RMK SC7 SLP121
Loading
Personal Weather Stations






























Interactive Weather Map
Tropical Storm Tracking
New forecast layout! Learn more

10-Day Weather Forecast

Advertisements
Track Severe Weather on mobile